Time;durP1;ratioP1;P1;durP2;ratioP2;P2;SDS_P1;SDS_P2;PMS_P1;PMS_P2;Temp;Humidity;BMP_temperature;BMP_pressure;BME280_temperature;BME280_humidity;BME280_pressure;Samples;Min_cycle;Max_cycle;Signal;HPM_P1;HPM_P2
2022/09/13 00:01:57;;;;;;;6.00;3.70;;;;;;;9.81;100.00;100591.56;4987858;28;20205;-75
2022/09/13 00:04:24;;;;;;;3.90;3.20;;;;;;;9.80;100.00;100583.81;5005266;28;20242;-75
2022/09/13 00:06:50;;;;;;;7.03;3.90;;;;;;;9.80;100.00;100581.22;5007144;28;20570;-75
2022/09/13 00:09:16;;;;;;;3.93;3.50;;;;;;;9.88;100.00;100586.22;5005385;28;20625;-75
2022/09/13 00:11:43;;;;;;;5.27;4.00;;;;;;;9.85;100.00;100581.97;5007305;28;20678;-75
2022/09/13 00:14:10;;;;;;;4.70;4.20;;;;;;;9.88;100.00;100573.22;5008285;28;20279;-75
2022/09/13 00:16:37;;;;;;;5.00;4.17;;;;;;;9.82;100.00;100569.84;4998496;28;20211;-75
2022/09/13 00:19:03;;;;;;;7.53;5.00;;;;;;;9.82;100.00;100567.25;5008115;28;20201;-75
2022/09/13 00:21:29;;;;;;;5.33;3.80;;;;;;;9.83;100.00;100566.38;4999267;28;20202;-75
2022/09/13 00:23:56;;;;;;;6.70;4.30;;;;;;;9.85;100.00;100561.97;5001132;28;20243;-75
2022/09/13 00:26:25;;;;;;;6.87;4.70;;;;;;;9.88;100.00;100560.19;4983192;28;20612;-75
2022/09/13 00:28:52;;;;;;;5.00;3.87;;;;;;;9.82;100.00;100559.44;5003351;28;20468;-75
2022/09/13 00:31:22;;;;;;;6.53;3.90;;;;;;;9.82;100.00;100553.38;4977729;28;20205;-74
2022/09/13 00:33:48;;;;;;;5.00;4.40;;;;;;;9.82;100.00;100550.78;5002571;28;20254;-75
2022/09/13 00:36:15;;;;;;;4.77;3.80;;;;;;;9.73;100.00;100551.00;5008326;28;20199;-75
2022/09/13 00:38:42;;;;;;;5.47;4.17;;;;;;;9.82;100.00;100553.38;4980499;28;20216;-75
2022/09/13 00:41:12;;;;;;;4.37;3.77;;;;;;;9.84;100.00;100544.63;5005689;28;20239;-75
2022/09/13 00:43:46;;;;;;;4.00;3.57;;;;;;;9.81;100.00;100534.28;4999096;28;20208;-75
2022/09/13 00:46:17;;;;;;;7.03;4.10;;;;;;;9.90;100.00;100524.53;4986876;28;20611;-75
2022/09/13 00:48:47;;;;;;;6.50;4.00;;;;;;;9.83;100.00;100529.03;5002882;28;20232;-75
2022/09/13 00:51:13;;;;;;;5.80;4.33;;;;;;;9.84;100.00;100522.94;4983846;28;20564;-75
2022/09/13 00:53:43;;;;;;;4.53;3.80;;;;;;;9.87;100.00;100517.69;5001795;28;20203;-75
2022/09/13 00:56:15;;;;;;;4.37;3.53;;;;;;;9.89;100.00;100518.50;5007460;28;20204;-75
2022/09/13 00:58:46;;;;;;;4.87;4.20;;;;;;;9.85;100.00;100514.25;5006811;28;20220;-75
2022/09/13 01:01:15;;;;;;;4.00;3.60;;;;;;;9.94;100.00;100518.38;4994494;28;20254;-75
2022/09/13 01:03:45;;;;;;;4.13;3.73;;;;;;;9.91;100.00;100521.91;4996632;28;20204;-75
2022/09/13 01:06:17;;;;;;;5.93;4.00;;;;;;;9.90;100.00;100516.72;5005898;28;20596;-75
2022/09/13 01:08:47;;;;;;;5.13;4.10;;;;;;;9.92;100.00;100512.34;4987702;28;20224;-75
2022/09/13 01:11:24;;;;;;;4.93;4.37;;;;;;;9.88;100.00;100510.72;4985466;28;20208;-75
2022/09/13 01:13:51;;;;;;;4.77;4.10;;;;;;;9.92;100.00;100500.19;4990961;28;20291;-75
2022/09/13 01:16:17;;;;;;;4.70;4.00;;;;;;;9.86;100.00;100497.72;5002468;28;20206;-75
2022/09/13 01:18:43;;;;;;;5.80;4.27;;;;;;;9.90;100.00;100488.94;5003293;28;20233;-75
2022/09/13 01:21:55;;;;;;;4.40;3.83;;;;;;;10.01;100.00;100489.53;5000107;28;20227;-75
2022/09/13 01:24:49;;;;;;;4.47;3.93;;;;;;;10.05;100.00;100485.94;4980609;28;20789;-75
2022/09/13 01:27:28;;;;;;;5.70;4.37;;;;;;;10.03;100.00;100484.28;4979925;28;20222;-75
2022/09/13 01:30:09;;;;;;;6.30;4.63;;;;;;;9.97;100.00;100479.22;5010090;28;20208;-75
2022/09/13 01:32:49;;;;;;;4.57;4.10;;;;;;;9.93;100.00;100473.22;5003117;28;20204;-75
2022/09/13 01:35:24;;;;;;;5.23;4.03;;;;;;;10.06;100.00;100476.41;5003934;28;20205;-75
2022/09/13 01:37:55;;;;;;;4.93;3.93;;;;;;;9.98;100.00;100454.91;4988792;28;20231;-75
2022/09/13 01:40:35;;;;;;;5.47;4.33;;;;;;;9.97;100.00;100455.78;4999814;28;20474;-75
2022/09/13 01:43:23;;;;;;;7.20;4.50;;;;;;;9.94;100.00;100443.69;4989617;28;20207;-75
2022/09/13 01:46:00;;;;;;;4.30;3.90;;;;;;;9.99;100.00;100447.03;5000162;28;20743;-75
2022/09/13 01:51:01;;;;;;;4.83;3.77;;;;;;;9.87;100.00;100431.75;4964262;28;20218;-75
2022/09/13 01:53:34;;;;;;;6.97;4.20;;;;;;;9.92;100.00;100418.56;4985215;28;20221;-75
2022/09/13 01:56:05;;;;;;;4.63;3.77;;;;;;;9.97;100.00;100419.31;4981051;28;20203;-75
2022/09/13 01:58:39;;;;;;;5.47;4.67;;;;;;;10.05;100.00;100417.38;4969764;28;20225;-75
2022/09/13 02:01:12;;;;;;;3.50;3.13;;;;;;;10.00;100.00;100421.84;4989910;28;20204;-75
2022/09/13 02:03:44;;;;;;;5.97;4.47;;;;;;;9.97;100.00;100417.59;4968996;28;20207;-75
2022/09/13 02:06:15;;;;;;;6.93;4.07;;;;;;;10.00;100.00;100421.84;4985976;28;20642;-75
2022/09/13 02:08:46;;;;;;;4.73;3.70;;;;;;;9.89;100.00;100424.75;4968538;28;20229;-75
2022/09/13 02:11:15;;;;;;;5.13;3.97;;;;;;;9.91;100.00;100422.94;4965601;28;20198;-75
2022/09/13 02:13:48;;;;;;;4.07;3.47;;;;;;;9.89;100.00;100411.72;4987426;28;20292;-75
2022/09/13 02:16:20;;;;;;;5.93;3.97;;;;;;;9.92;100.00;100409.03;4984513;28;20202;-75
2022/09/13 02:18:52;;;;;;;4.83;3.30;;;;;;;9.89;100.00;100416.94;4984783;28;20220;-75
2022/09/13 02:21:23;;;;;;;5.93;4.13;;;;;;;9.86;100.00;100420.44;4979254;28;20287;-75
2022/09/13 02:23:53;;;;;;;5.47;3.97;;;;;;;9.82;100.00;100423.19;4982160;28;20211;-75
2022/09/13 02:26:21;;;;;;;4.73;3.90;;;;;;;9.82;100.00;100421.44;4984897;28;20209;-75
2022/09/13 02:28:51;;;;;;;4.03;3.63;;;;;;;9.86;100.00;100417.84;4982816;28;20220;-75
2022/09/13 02:31:25;;;;;;;4.30;3.70;;;;;;;9.83;100.00;100417.94;4986629;28;20201;-75
2022/09/13 02:33:56;;;;;;;3.37;3.03;;;;;;;9.97;100.00;100419.31;4967369;28;20257;-75
2022/09/13 02:36:26;;;;;;;3.70;3.30;;;;;;;9.88;100.00;100423.00;4985508;28;20210;-75
2022/09/13 02:38:58;;;;;;;4.17;3.30;;;;;;;9.90;100.00;100408.19;4981845;28;20762;-75
2022/09/13 02:41:31;;;;;;;3.97;3.27;;;;;;;9.86;100.00;100406.59;4981882;28;20685;-75
2022/09/13 02:44:05;;;;;;;3.83;3.27;;;;;;;9.90;100.00;100394.34;4966132;28;20206;-75
2022/09/13 02:46:47;;;;;;;4.83;3.87;;;;;;;9.82;100.00;100399.75;4985042;28;20211;-75
2022/09/13 02:49:23;;;;;;;4.30;3.70;;;;;;;9.88;100.00;100391.75;4984143;28;20226;-75
2022/09/13 02:51:55;;;;;;;4.13;3.63;;;;;;;9.83;100.00;100389.31;4965536;28;20209;-75
2022/09/13 02:54:30;;;;;;;4.30;3.50;;;;;;;9.78;100.00;100398.09;4965487;28;20216;-75
2022/09/13 02:57:02;;;;;;;3.50;3.20;;;;;;;9.79;100.00;100398.06;4963180;28;20508;-75
2022/09/13 02:59:29;;;;;;;4.40;3.60;;;;;;;9.71;100.00;100386.16;4982123;28;20379;-75
2022/09/13 03:02:03;;;;;;;3.50;3.20;;;;;;;9.73;100.00;100380.03;4987835;28;20209;-75
2022/09/13 03:04:30;;;;;;;5.23;3.83;;;;;;;9.73;100.00;100377.41;4983586;28;20590;-75
2022/09/13 03:06:56;;;;;;;5.07;3.63;;;;;;;9.72;100.00;100380.06;4968421;28;20204;-75
2022/09/13 03:09:23;;;;;;;4.20;3.77;;;;;;;9.70;100.00;100377.50;4967414;28;20217;-75
2022/09/13 03:12:14;;;;;;;4.00;3.60;;;;;;;9.63;100.00;100363.78;4982706;28;20210;-75
2022/09/13 03:14:46;;;;;;;4.00;3.60;;;;;;;9.60;100.00;100371.69;4983058;28;20221;-75
2022/09/13 03:17:35;;;;;;;4.17;3.70;;;;;;;9.60;100.00;100373.41;4970035;28;20225;-75
2022/09/13 03:20:08;;;;;;;4.23;3.40;;;;;;;9.63;100.00;100371.59;4963969;28;20202;-75
2022/09/13 03:22:48;;;;;;;4.10;3.70;;;;;;;9.70;100.00;100361.03;4987082;28;20546;-75
2022/09/13 03:25:26;;;;;;;4.80;3.50;;;;;;;9.63;100.00;100362.94;4980968;28;20236;-75
2022/09/13 03:28:02;;;;;;;4.37;3.60;;;;;;;9.58;100.00;100359.59;4984240;28;20818;-75
2022/09/13 03:30:31;;;;;;;8.33;3.97;;;;;;;9.64;100.00;100355.09;4965780;28;20201;-75
2022/09/13 03:33:06;;;;;;;5.00;4.00;;;;;;;9.71;100.00;100352.31;4986118;28;20201;-75
2022/09/13 03:35:39;;;;;;;4.20;3.63;;;;;;;9.73;100.00;100343.56;4985106;28;20208;-75
2022/09/13 03:38:10;;;;;;;4.50;3.87;;;;;;;9.80;100.00;100352.09;4960761;28;20240;-75
2022/09/13 03:40:43;;;;;;;6.40;3.47;;;;;;;9.74;100.00;100350.47;4980419;28;20598;-75
2022/09/13 03:43:14;;;;;;;5.50;4.13;;;;;;;9.77;100.00;100342.59;4980447;28;20232;-75
2022/09/13 03:45:44;;;;;;;4.47;3.93;;;;;;;9.78;100.00;100343.44;4985499;28;20205;-75
2022/09/13 03:48:13;;;;;;;4.53;3.87;;;;;;;9.74;100.00;100337.47;4984720;28;20216;-75
2022/09/13 03:50:40;;;;;;;5.47;4.53;;;;;;;9.71;100.00;100337.56;4984778;28;20209;-75
2022/09/13 03:53:10;;;;;;;4.17;3.60;;;;;;;9.71;100.00;100347.09;4982686;28;20214;-75
2022/09/13 03:55:40;;;;;;;4.13;3.73;;;;;;;9.71;100.00;100347.97;4969201;28;20337;-75
2022/09/13 03:58:06;;;;;;;4.30;3.87;;;;;;;9.74;100.00;100345.25;4985184;28;20228;-75
2022/09/13 04:00:33;;;;;;;4.43;3.70;;;;;;;9.74;100.00;100334.00;4986294;28;20197;-75
2022/09/13 04:02:59;;;;;;;6.30;3.53;;;;;;;9.79;100.00;100337.34;4983635;28;20209;-75
2022/09/13 04:05:27;;;;;;;4.20;3.80;;;;;;;9.74;100.00;100326.19;4966565;28;20211;-75
2022/09/13 04:07:53;;;;;;;4.47;3.87;;;;;;;9.64;100.00;100336.88;4967506;28;20227;-75
2022/09/13 04:10:19;;;;;;;4.60;3.93;;;;;;;9.64;100.00;100326.47;4984775;28;20228;-75
2022/09/13 04:12:45;;;;;;;5.97;4.43;;;;;;;9.69;100.00;100330.69;4966611;28;20586;-75
2022/09/13 04:15:12;;;;;;;6.97;4.77;;;;;;;9.62;100.00;100322.16;4977586;28;20644;-74
2022/09/13 04:17:38;;;;;;;5.17;4.10;;;;;;;9.58;100.00;100313.59;4976109;28;20717;-74
2022/09/13 04:20:05;;;;;;;5.07;3.90;;;;;;;9.60;100.00;100318.75;4961712;28;20209;-74
2022/09/13 04:22:33;;;;;;;5.80;4.13;;;;;;;9.71;100.00;100319.34;4980115;28;20769;-74
2022/09/13 04:24:59;;;;;;;5.57;4.47;;;;;;;9.80;100.00;100313.88;4980917;28;20202;-74
2022/09/13 04:27:25;;;;;;;5.43;4.30;;;;;;;9.78;100.00;100315.66;4981750;28;20298;-75
2022/09/13 04:29:52;;;;;;;4.83;4.13;;;;;;;9.82;100.00;100319.88;4963411;28;20228;-74
2022/09/13 04:32:18;;;;;;;4.93;4.17;;;;;;;9.88;100.00;100318.84;4981666;28;20205;-74
2022/09/13 04:34:46;;;;;;;5.03;4.27;;;;;;;9.87;100.00;100311.97;4975789;28;20206;-75
2022/09/13 04:37:12;;;;;;;5.77;4.40;;;;;;;9.93;100.00;100316.13;4962676;28;20336;-75
2022/09/13 04:39:40;;;;;;;5.03;3.87;;;;;;;9.96;100.00;100314.28;4981276;28;20221;-74
2022/09/13 04:42:07;;;;;;;6.37;4.90;;;;;;;10.00;100.00;100307.25;4980860;28;20207;-74
2022/09/13 04:44:33;;;;;;;5.20;4.57;;;;;;;10.01;100.00;100314.16;4977780;28;20198;-75
2022/09/13 04:46:59;;;;;;;5.87;4.50;;;;;;;9.92;100.00;100311.81;4962724;28;20205;-75
2022/09/13 04:49:26;;;;;;;5.83;4.63;;;;;;;9.87;100.00;100311.97;4965732;28;20254;-75
2022/09/13 04:51:52;;;;;;;6.23;4.33;;;;;;;9.88;100.00;100313.66;4983987;28;20212;-74
2022/09/13 04:54:18;;;;;;;5.53;4.20;;;;;;;9.94;100.00;100308.28;4969091;28;20660;-75
2022/09/13 04:56:46;;;;;;;7.43;4.53;;;;;;;9.92;100.00;100309.19;4963549;28;20486;-75
2022/09/13 04:59:13;;;;;;;9.67;3.93;;;;;;;9.97;100.00;100297.78;4976974;28;20227;-74
2022/09/13 05:01:40;;;;;;;6.40;4.37;;;;;;;9.99;100.00;100295.09;4984039;28;20905;-74
2022/09/13 05:04:08;;;;;;;6.87;4.70;;;;;;;10.00;100.00;100292.47;4959429;28;21101;-75
2022/09/13 05:06:34;;;;;;;6.03;4.27;;;;;;;10.04;100.00;100294.09;4956552;28;20203;-74
2022/09/13 05:09:02;;;;;;;5.57;4.50;;;;;;;10.02;100.00;100290.66;4979558;28;20222;-74
2022/09/13 05:11:29;;;;;;;6.53;4.70;;;;;;;10.10;100.00;100293.06;4982360;28;20198;-75
2022/09/13 05:13:58;;;;;;;4.50;4.10;;;;;;;10.13;100.00;100290.38;4977829;28;20197;-74
2022/09/13 05:16:26;;;;;;;5.13;3.97;;;;;;;10.19;100.00;100289.31;4978751;28;20253;-74
2022/09/13 05:18:53;;;;;;;6.60;4.73;;;;;;;10.22;100.00;100290.09;4982367;28;20228;-74
2022/09/13 05:21:20;;;;;;;7.37;4.87;;;;;;;10.25;100.00;100286.53;4979126;28;20205;-74
2022/09/13 05:23:49;;;;;;;6.60;5.30;;;;;;;10.33;100.00;100288.94;4960376;28;20211;-74
2022/09/13 05:26:15;;;;;;;5.50;4.63;;;;;;;10.29;100.00;100282.94;4977469;28;20298;-75
2022/09/13 05:28:42;;;;;;;5.57;4.37;;;;;;;10.36;100.00;100284.50;4982892;28;20231;-74
2022/09/13 05:31:15;;;;;;;7.07;5.00;;;;;;;10.46;100.00;100294.63;4964791;28;20207;-75
2022/09/13 05:33:41;;;;;;;6.47;4.87;;;;;;;10.47;100.00;100294.59;4980579;28;20207;-74
2022/09/13 05:36:08;;;;;;;6.50;5.43;;;;;;;10.53;100.00;100293.53;4964907;28;20213;-74
2022/09/13 05:38:34;;;;;;;6.27;4.80;;;;;;;10.56;100.00;100296.06;4980361;28;20221;-74
2022/09/13 05:41:03;;;;;;;9.20;5.63;;;;;;;10.54;100.00;100287.44;4987103;28;20202;-74
2022/09/13 05:43:31;;;;;;;5.40;4.60;;;;;;;10.57;100.00;100287.31;4982367;28;20213;-74
2022/09/13 05:46:02;;;;;;;7.80;5.57;;;;;;;10.66;100.00;100275.75;4981535;28;20207;-74
2022/09/13 05:48:31;;;;;;;6.77;5.13;;;;;;;10.64;100.00;100268.00;4983829;28;20259;-74
2022/09/13 05:51:05;;;;;;;6.83;5.47;;;;;;;10.64;100.00;100273.22;4982091;28;20235;-74
2022/09/13 05:53:31;;;;;;;6.93;5.10;;;;;;;10.68;100.00;100259.16;4966767;28;20218;-74
2022/09/13 05:55:58;;;;;;;7.73;5.23;;;;;;;10.76;100.00;100261.50;4983379;28;20592;-74
2022/09/13 05:58:25;;;;;;;7.47;5.37;;;;;;;10.75;100.00;100260.66;4985196;28;20227;-74
2022/09/13 06:00:53;;;;;;;8.77;5.00;;;;;;;10.82;100.00;100256.13;4979716;28;20283;-74
2022/09/13 06:03:20;;;;;;;7.40;5.83;;;;;;;10.86;100.00;100264.69;4978601;28;20235;-74
2022/09/13 06:05:47;;;;;;;6.27;5.33;;;;;;;10.97;100.00;100254.72;4978855;28;20515;-74
2022/09/13 06:08:14;;;;;;;8.83;5.60;;;;;;;11.09;100.00;100241.28;4983082;28;20220;-74
2022/09/13 06:10:41;;;;;;;9.13;6.23;;;;;;;11.28;100.00;100241.50;4984122;28;20223;-74
2022/09/13 06:13:07;;;;;;;7.70;5.70;;;;;;;11.44;100.00;100241.81;4967274;28;20213;-74
2022/09/13 06:15:33;;;;;;;8.10;6.23;;;;;;;11.64;100.00;100238.44;4982567;28;20207;-75
2022/09/13 06:18:00;;;;;;;9.83;6.20;;;;;;;11.80;100.00;100228.28;4955069;28;20221;-74
2022/09/13 06:20:26;;;;;;;9.77;6.13;;;;;;;12.01;100.00;100228.44;4962797;28;20280;-75
2022/09/13 06:22:54;;;;;;;9.77;6.93;;;;;;;12.29;100.00;100228.22;4975026;28;20208;-74
2022/09/13 06:25:20;;;;;;;8.90;6.77;;;;;;;12.47;100.00;100226.63;4980224;28;20205;-75
2022/09/13 06:27:46;;;;;;;8.90;6.70;;;;;;;12.60;100.00;100225.22;4979975;28;20236;-75
2022/09/13 06:30:14;;;;;;;10.47;7.00;;;;;;;12.67;100.00;100224.03;4984521;28;20225;-74
2022/09/13 06:32:40;;;;;;;9.53;7.27;;;;;;;12.81;100.00;100226.09;4982116;28;20225;-75
2022/09/13 06:35:08;;;;;;;9.70;6.83;;;;;;;12.93;100.00;100216.88;4966730;28;20501;-75
2022/09/13 06:37:34;;;;;;;12.17;7.27;;;;;;;13.04;100.00;100214.66;4985083;28;20362;-74
2022/09/13 06:40:03;;;;;;;10.87;7.07;;;;;;;13.18;100.00;100215.84;4964600;28;20199;-75
2022/09/13 06:42:30;;;;;;;10.70;7.13;;;;;;;13.24;100.00;100218.16;4983174;28;20671;-74
2022/09/13 06:44:57;;;;;;;10.03;7.00;;;;;;;13.30;100.00;100217.91;4964745;28;20573;-74
2022/09/13 06:47:23;;;;;;;9.43;6.87;;;;;;;13.33;100.00;100219.56;4979572;28;20229;-75
2022/09/13 06:49:49;;;;;;;8.20;6.00;;;;;;;13.32;100.00;100215.28;4965069;28;20234;-75
2022/09/13 06:52:16;;;;;;;8.13;5.70;;;;;;;13.33;100.00;100206.47;4964935;28;20201;-75
2022/09/13 06:54:42;;;;;;;9.50;5.63;;;;;;;13.34;100.00;100205.56;4982885;28;20216;-75
2022/09/13 06:57:10;;;;;;;6.03;4.90;;;;;;;13.34;100.00;100201.19;4983910;28;20201;-75
2022/09/13 06:59:36;;;;;;;5.77;4.53;;;;;;;13.34;100.00;100202.97;4983225;28;20215;-74
2022/09/13 07:02:02;;;;;;;5.10;4.50;;;;;;;13.29;100.00;100205.72;4984254;28;20708;-74
2022/09/13 07:04:30;;;;;;;4.50;3.73;;;;;;;13.26;100.00;100208.47;4959000;28;20206;-75
2022/09/13 07:06:58;;;;;;;4.03;3.43;;;;;;;13.26;100.00;100201.50;4966423;28;20719;-74
2022/09/13 07:09:24;;;;;;;4.40;3.80;;;;;;;13.24;100.00;100202.47;4966119;28;20237;-74
2022/09/13 07:11:52;;;;;;;3.20;2.90;;;;;;;13.24;100.00;100207.69;4963158;28;20555;-74
2022/09/13 07:14:22;;;;;;;3.30;2.87;;;;;;;13.22;100.00;100206.91;4982518;28;20725;-74
2022/09/13 07:16:50;;;;;;;3.70;3.23;;;;;;;13.24;100.00;100212.94;4979814;28;20228;-74
2022/09/13 07:19:19;;;;;;;3.57;3.10;;;;;;;13.24;100.00;100205.97;4965573;28;20309;-74
2022/09/13 07:21:45;;;;;;;4.67;3.43;;;;;;;13.26;100.00;100206.72;4967898;28;20668;-74
2022/09/13 07:24:12;;;;;;;4.13;3.23;;;;;;;13.29;100.00;100218.81;4983580;28;20202;-74
2022/09/13 07:26:38;;;;;;;4.03;3.23;;;;;;;13.32;100.00;100213.50;4980163;28;20202;-74
2022/09/13 07:29:08;;;;;;;4.47;3.03;;;;;;;13.32;100.00;100208.25;4966276;28;20602;-74
2022/09/13 07:31:37;;;;;;;3.37;3.07;;;;;;;13.36;100.00;100204.56;4979657;28;20231;-74
2022/09/13 07:34:05;;;;;;;4.53;3.47;;;;;;;13.37;100.00;100210.69;4977558;28;20768;-74
2022/09/13 07:36:34;;;;;;;4.10;3.10;;;;;;;13.37;100.00;100213.31;4969572;28;20219;-74
2022/09/13 07:39:01;;;;;;;5.60;4.13;;;;;;;13.31;100.00;100211.78;4982279;28;20232;-74
2022/09/13 07:41:29;;;;;;;5.13;3.83;;;;;;;13.35;100.00;100217.72;4982023;28;20208;-74
2022/09/13 07:43:55;;;;;;;3.93;3.30;;;;;;;13.37;100.00;100211.53;4985503;28;20543;-74
2022/09/13 07:46:24;;;;;;;4.63;3.47;;;;;;;13.41;100.00;100217.47;4982848;28;20205;-74
2022/09/13 07:48:53;;;;;;;4.53;3.50;;;;;;;13.40;100.00;100221.00;4980414;28;20236;-74
2022/09/13 07:51:21;;;;;;;5.67;3.30;;;;;;;13.40;100.00;100234.97;4965648;28;20582;-74
2022/09/13 07:53:50;;;;;;;4.00;3.30;;;;;;;13.44;100.00;100225.19;4981269;28;20264;-74
2022/09/13 07:56:19;;;;;;;4.53;3.37;;;;;;;13.51;100.00;100229.25;4978614;28;20669;-74
2022/09/13 07:58:47;;;;;;;4.87;3.80;;;;;;;13.60;100.00;100226.22;4980807;28;20626;-74
2022/09/13 08:01:16;;;;;;;6.73;4.10;;;;;;;13.72;100.00;100218.69;4981496;28;20198;-74
2022/09/13 08:03:43;;;;;;;5.00;3.87;;;;;;;13.81;100.00;100205.19;4981876;28;20212;-74
2022/09/13 08:06:11;;;;;;;5.17;3.93;;;;;;;13.89;100.00;100216.16;4981971;28;20205;-74
2022/09/13 08:08:37;;;;;;;4.93;4.03;;;;;;;14.01;100.00;100204.25;4982257;28;20238;-74
2022/09/13 08:11:06;;;;;;;4.87;3.97;;;;;;;14.07;100.00;100208.34;4981955;28;20606;-74
2022/09/13 08:13:33;;;;;;;5.10;4.17;;;;;;;14.18;100.00;100213.97;4981138;28;20228;-74
2022/09/13 08:16:02;;;;;;;4.73;3.97;;;;;;;14.20;100.00;100226.06;4982862;28;20202;-74
2022/09/13 08:18:28;;;;;;;4.80;4.10;;;;;;;14.39;100.00;100214.69;4984222;28;20217;-74
2022/09/13 08:20:56;;;;;;;10.17;4.43;;;;;;;14.51;100.00;100216.72;4978022;28;20197;-74
2022/09/13 08:23:24;;;;;;;5.97;4.83;;;;;;;14.56;100.00;100226.97;4982455;28;20193;-74
2022/09/13 08:25:51;;;;;;;5.20;4.40;;;;;;;14.68;100.00;100221.16;4978211;28;20197;-74
2022/09/13 08:28:20;;;;;;;5.77;4.33;;;;;;;14.70;100.00;100216.66;4983021;28;20236;-74
2022/09/13 08:30:47;;;;;;;5.53;4.53;;;;;;;14.77;100.00;100219.84;4984056;28;20233;-74
2022/09/13 08:33:14;;;;;;;4.73;4.20;;;;;;;14.82;100.00;100212.59;4983684;28;20689;-74
2022/09/13 08:35:41;;;;;;;4.33;3.80;;;;;;;14.87;100.00;100196.63;4979872;28;20205;-74
2022/09/13 08:38:07;;;;;;;5.00;4.17;;;;;;;14.98;100.00;100194.28;4965883;28;20240;-74
2022/09/13 08:40:45;;;;;;;5.10;4.60;;;;;;;15.09;100.00;100191.09;4964979;28;20189;-74
2022/09/13 08:43:17;;;;;;;6.53;5.00;;;;;;;15.18;100.00;100197.66;4977752;28;20213;-74
2022/09/13 08:45:50;;;;;;;6.67;4.50;;;;;;;15.17;100.00;100194.19;4983235;28;20551;-74
2022/09/13 08:48:20;;;;;;;4.97;4.20;;;;;;;15.22;100.00;100193.97;4977056;28;20304;-74
2022/09/13 08:50:50;;;;;;;4.17;3.77;;;;;;;15.30;100.00;100182.13;4963053;28;20233;-74
2022/09/13 08:53:22;;;;;;;4.50;3.73;;;;;;;15.31;100.00;100181.19;4966808;28;20579;-74
2022/09/13 08:56:03;;;;;;;4.97;4.20;;;;;;;15.34;100.00;100186.28;4983779;28;20212;-74
2022/09/13 08:58:43;;;;;;;6.40;4.30;;;;;;;15.28;100.00;100183.97;4980059;28;20252;-74
2022/09/13 09:01:22;;;;;;;5.87;3.87;;;;;;;15.25;100.00;100184.16;4983926;28;20741;-74
2022/09/13 09:03:55;;;;;;;5.70;4.30;;;;;;;15.29;100.00;100171.69;4979302;28;20284;-74
2022/09/13 09:06:22;;;;;;;4.67;3.97;;;;;;;15.37;100.00;100166.03;4980602;28;20205;-74
2022/09/13 09:08:53;;;;;;;4.73;4.03;;;;;;;15.40;100.00;100164.09;4987922;28;20341;-74
2022/09/13 09:11:33;;;;;;;4.40;4.00;;;;;;;15.48;100.00;100158.44;4968845;28;20213;-74
2022/09/13 09:14:05;;;;;;;4.73;4.10;;;;;;;15.52;100.00;100163.44;4982413;28;20193;-74
2022/09/13 09:16:37;;;;;;;4.97;4.33;;;;;;;15.63;100.00;100160.22;4979567;28;20201;-74
2022/09/13 09:19:13;;;;;;;4.23;3.80;;;;;;;15.71;100.00;100162.44;4963953;28;20705;-74
2022/09/13 09:21:40;;;;;;;5.60;4.30;;;;;;;15.81;100.00;100168.06;4985096;28;20193;-74
2022/09/13 09:24:11;;;;;;;6.43;4.77;;;;;;;15.95;100.00;100162.88;4984235;28;20205;-74
2022/09/13 09:26:39;;;;;;;5.23;3.90;;;;;;;16.05;100.00;100158.81;4983408;28;20201;-74
2022/09/13 09:29:14;;;;;;;6.73;4.00;;;;;;;16.21;100.00;100168.47;4984943;28;20616;-74
2022/09/13 09:31:48;;;;;;;4.17;3.70;;;;;;;16.25;100.00;100160.31;4984822;28;20228;-74
2022/09/13 09:34:30;;;;;;;5.13;4.43;;;;;;;16.31;100.00;100163.53;4965950;28;20205;-74
2022/09/13 09:37:04;;;;;;;4.30;3.80;;;;;;;16.39;100.00;100164.78;4984382;28;20209;-74
2022/09/13 09:39:37;;;;;;;5.63;4.03;;;;;;;16.45;100.00;100159.16;4967946;28;20681;-74
2022/09/13 09:42:12;;;;;;;5.30;3.90;;;;;;;16.46;100.00;100160.88;4986103;28;20205;-74
2022/09/13 09:44:40;;;;;;;4.67;3.50;;;;;;;16.58;100.00;100153.19;4982636;28;20243;-74
2022/09/13 09:47:13;;;;;;;4.00;3.60;;;;;;;16.65;100.00;100149.25;4987347;28;20296;-74
2022/09/13 09:52:35;;;;;;;5.50;3.80;;;;;;;16.93;100.00;100148.47;4979188;28;20234;-74
2022/09/13 09:55:14;;;;;;;4.87;3.87;;;;;;;16.99;100.00;100153.41;4970339;28;20316;-74
2022/09/13 09:57:54;;;;;;;5.27;3.60;;;;;;;17.15;100.00;100141.91;4979168;28;20283;-74
2022/09/13 10:00:23;;;;;;;5.03;3.83;;;;;;;17.41;100.00;100149.06;4985742;28;20345;-74
2022/09/13 10:02:53;;;;;;;5.37;3.57;;;;;;;17.63;100.00;100142.44;4977941;28;20597;-74
2022/09/13 10:05:22;;;;;;;4.13;3.63;;;;;;;17.70;100.00;100140.28;4979035;28;20209;-74
2022/09/13 10:07:54;;;;;;;4.20;3.30;;;;;;;17.75;100.00;100146.94;4982303;28;20296;-74
2022/09/13 10:10:25;;;;;;;5.43;3.60;;;;;;;17.95;100.00;100147.47;4986578;28;20588;-74
2022/09/13 10:12:56;;;;;;;4.77;3.97;;;;;;;18.06;100.00;100144.16;4966093;28;20201;-74
2022/09/13 10:15:25;;;;;;;3.70;3.27;;;;;;;18.13;100.00;100140.16;4982196;28;20225;-74
2022/09/13 10:18:14;;;;;;;3.90;3.30;;;;;;;18.06;100.00;100144.97;4978206;28;20221;-74
2022/09/13 10:20:40;;;;;;;4.53;3.20;;;;;;;18.18;100.00;100138.06;4979413;28;20336;-74
2022/09/13 10:23:25;;;;;;;4.63;3.10;;;;;;;18.42;100.00;100143.53;4980950;28;20682;-74
2022/09/13 10:25:58;;;;;;;4.30;3.50;;;;;;;18.50;100.00;100140.38;4979838;28;20577;-74
2022/09/13 10:28:26;;;;;;;4.37;3.40;;;;;;;18.53;100.00;100130.44;4978105;28;20255;-74
2022/09/13 10:30:55;;;;;;;4.53;3.40;;;;;;;18.53;100.00;100127.81;4982757;28;20570;-74
2022/09/13 10:33:28;;;;;;;3.33;3.03;;;;;;;18.54;100.00;100136.59;4981748;28;20197;-74
2022/09/13 10:35:57;;;;;;;3.53;2.97;;;;;;;18.60;100.00;100128.25;4983729;28;20689;-74
2022/09/13 10:38:29;;;;;;;4.00;3.57;;;;;;;18.76;100.00;100122.78;4978631;28;20594;-74
2022/09/13 10:40:56;;;;;;;3.33;3.03;;;;;;;18.90;100.00;100125.34;4983412;28;20529;-74
2022/09/13 10:43:27;;;;;;;3.70;3.10;;;;;;;19.00;100.00;100119.44;4965009;28;20398;-74
2022/09/13 10:45:55;;;;;;;3.87;3.47;;;;;;;19.11;100.00;100127.44;4976966;28;20206;-74
2022/09/13 10:48:23;;;;;;;3.73;2.90;;;;;;;19.15;100.00;100126.28;4984879;28;20304;-74
2022/09/13 10:51:04;;;;;;;3.43;3.13;;;;;;;19.35;100.00;100130.19;4981849;28;20223;-74
2022/09/13 10:53:37;;;;;;;3.63;3.20;;;;;;;19.45;100.00;100127.72;4962142;28;20208;-73
2022/09/13 10:56:04;;;;;;;3.20;2.73;;;;;;;19.53;100.00;100119.25;4966150;28;20442;-74
2022/09/13 10:58:32;;;;;;;3.20;2.83;;;;;;;19.69;100.00;100106.59;4976518;28;20701;-74
2022/09/13 11:01:35;;;;;;;3.17;2.88;;;;;;;19.78;100.00;100113.88;4984949;28;20236;-74
2022/09/13 11:04:39;;;;;;;4.40;2.88;;;;;;;19.82;100.00;100109.22;4981667;28;20210;-74
2022/09/13 11:07:20;;;;;;;4.78;2.92;;;;;;;19.80;100.00;100121.72;4977569;28;20205;-74
2022/09/13 11:09:55;;;;;;;4.43;3.03;;;;;;;19.83;100.00;100129.44;4966143;28;20591;-74
2022/09/13 11:12:31;;;;;;;3.17;2.67;;;;;;;19.70;100.00;100133.88;4981651;28;20216;-74
2022/09/13 11:15:14;;;;;;;3.20;2.67;;;;;;;19.75;100.00;100132.66;4983200;28;20304;-73
2022/09/13 11:18:18;;;;;;;3.67;2.65;;;;;;;19.82;100.00;100125.97;4981250;28;20308;-73
2022/09/13 11:20:54;;;;;;;3.30;2.78;;;;;;;19.93;100.00;100119.00;4980716;28;20292;-74
2022/09/13 11:23:44;;;;;;;3.50;2.72;;;;;;;19.95;100.00;100117.13;4963531;28;20213;-74
2022/09/13 11:26:27;;;;;;;3.10;2.80;;;;;;;20.08;100.00;100111.75;4959301;28;20205;-74
2022/09/13 11:29:03;;;;;;;3.38;2.55;;;;;;;20.16;100.00;100107.59;4979132;28;20228;-74
2022/09/13 11:31:42;;;;;;;3.78;3.10;;;;;;;20.23;100.00;100113.28;4961613;28;20213;-74
2022/09/13 11:34:23;;;;;;;4.97;2.70;;;;;;;20.11;100.00;100120.31;4980571;28;20321;-73
2022/09/13 11:37:01;;;;;;;3.83;2.90;;;;;;;20.18;100.00;100115.41;4981695;28;20212;-73
2022/09/13 11:39:32;;;;;;;3.42;3.13;;;;;;;20.18;100.00;100110.13;4982177;28;20221;-74
2022/09/13 11:42:07;;;;;;;3.83;3.05;;;;;;;20.29;100.00;100107.50;4983500;28;20571;-73